sensor_id;sensor_type;location;lat;lon;timestamp;pressure;altitude;pressure_sealevel;temperature;humidity
55761;BME280;41679;51.440;-2.012;2022-08-11T00:00:11;101376.63;;;20.03;100.00
55761;BME280;41679;51.440;-2.012;2022-08-11T00:02:39;101373.19;;;19.96;100.00
55761;BME280;41679;51.440;-2.012;2022-08-11T00:05:08;101365.66;;;19.92;100.00
55761;BME280;41679;51.440;-2.012;2022-08-11T00:07:55;101371.75;;;19.94;100.00
55761;BME280;41679;51.440;-2.012;2022-08-11T00:10:26;101369.38;;;19.97;100.00
55761;BME280;41679;51.440;-2.012;2022-08-11T00:12:56;101377.38;;;19.99;100.00
55761;BME280;41679;51.440;-2.012;2022-08-11T00:15:23;101375.66;;;20.09;100.00
55761;BME280;41679;51.440;-2.012;2022-08-11T00:17:56;101382.25;;;20.08;100.00
55761;BME280;41679;51.440;-2.012;2022-08-11T00:20:29;101380.50;;;20.02;100.00
55761;BME280;41679;51.440;-2.012;2022-08-11T00:23:10;101379.78;;;19.95;100.00
55761;BME280;41679;51.440;-2.012;2022-08-11T00:25:48;101371.31;;;19.85;100.00
55761;BME280;41679;51.440;-2.012;2022-08-11T00:28:28;101378.53;;;19.74;100.00
55761;BME280;41679;51.440;-2.012;2022-08-11T00:31:07;101378.41;;;19.69;100.00
55761;BME280;41679;51.440;-2.012;2022-08-11T00:33:38;101382.81;;;19.58;100.00
55761;BME280;41679;51.440;-2.012;2022-08-11T00:36:05;101383.53;;;19.42;100.00
55761;BME280;41679;51.440;-2.012;2022-08-11T00:38:35;101383.56;;;19.30;100.00
55761;BME280;41679;51.440;-2.012;2022-08-11T00:44:22;101373.75;;;19.58;100.00
55761;BME280;41679;51.440;-2.012;2022-08-11T01:26:08;101364.78;;;19.04;100.00
55761;BME280;41679;51.440;-2.012;2022-08-11T01:29:16;101360.59;;;19.01;100.00
55761;BME280;41679;51.440;-2.012;2022-08-11T01:43:18;101361.13;;;18.68;100.00
55761;BME280;41679;51.440;-2.012;2022-08-11T01:46:27;101363.69;;;18.51;100.00
55761;BME280;41679;51.440;-2.012;2022-08-11T01:57:15;101369.06;;;18.15;100.00
55761;BME280;41679;51.440;-2.012;2022-08-11T01:59:49;101364.34;;;18.23;100.00
55761;BME280;41679;51.440;-2.012;2022-08-11T02:08:54;101366.31;;;18.15;100.00
55761;BME280;41679;51.440;-2.012;2022-08-11T02:11:26;101367.84;;;18.11;100.00
55761;BME280;41679;51.440;-2.012;2022-08-11T02:25:36;101364.84;;;17.83;100.00
55761;BME280;41679;51.440;-2.012;2022-08-11T02:28:28;101361.34;;;17.76;100.00
55761;BME280;41679;51.440;-2.012;2022-08-11T02:31:18;101356.13;;;17.67;100.00
55761;BME280;41679;51.440;-2.012;2022-08-11T02:37:00;101355.09;;;17.50;100.00
55761;BME280;41679;51.440;-2.012;2022-08-11T02:39:37;101355.13;;;17.43;100.00
55761;BME280;41679;51.440;-2.012;2022-08-11T02:42:18;101353.53;;;17.36;100.00
55761;BME280;41679;51.440;-2.012;2022-08-11T02:48:05;101351.03;;;17.16;100.00
55761;BME280;41679;51.440;-2.012;2022-08-11T02:56:39;101350.41;;;16.89;100.00
55761;BME280;41679;51.440;-2.012;2022-08-11T03:02:12;101341.44;;;16.75;100.00
55761;BME280;41679;51.440;-2.012;2022-08-11T03:07:30;101341.72;;;16.67;100.00
55761;BME280;41679;51.440;-2.012;2022-08-11T03:19:08;101332.44;;;16.43;100.00
55761;BME280;41679;51.440;-2.012;2022-08-11T03:22:01;101332.25;;;16.37;100.00
55761;BME280;41679;51.440;-2.012;2022-08-11T03:24:32;101323.00;;;16.32;100.00
55761;BME280;41679;51.440;-2.012;2022-08-11T03:27:20;101324.28;;;16.29;100.00
55761;BME280;41679;51.440;-2.012;2022-08-11T03:30:07;101317.13;;;16.28;100.00
55761;BME280;41679;51.440;-2.012;2022-08-11T03:32:45;101316.50;;;16.26;100.00
55761;BME280;41679;51.440;-2.012;2022-08-11T03:35:40;101317.59;;;16.25;100.00
55761;BME280;41679;51.440;-2.012;2022-08-11T03:38:13;101317.19;;;16.22;100.00
55761;BME280;41679;51.440;-2.012;2022-08-11T03:49:51;101308.72;;;15.91;100.00
55761;BME280;41679;51.440;-2.012;2022-08-11T03:55:39;101309.00;;;15.83;100.00
55761;BME280;41679;51.440;-2.012;2022-08-11T03:58:27;101309.84;;;15.77;100.00
55761;BME280;41679;51.440;-2.012;2022-08-11T04:09:37;101302.38;;;15.46;100.00
55761;BME280;41679;51.440;-2.012;2022-08-11T04:18:19;101296.31;;;15.44;100.00
55761;BME280;41679;51.440;-2.012;2022-08-11T04:26:41;101291.69;;;15.38;100.00
55761;BME280;41679;51.440;-2.012;2022-08-11T04:29:31;101288.56;;;15.34;100.00
55761;BME280;41679;51.440;-2.012;2022-08-11T04:34:43;101290.25;;;15.28;100.00
55761;BME280;41679;51.440;-2.012;2022-08-11T04:37:34;101298.44;;;15.22;100.00
55761;BME280;41679;51.440;-2.012;2022-08-11T04:48:37;101300.38;;;15.15;100.00
55761;BME280;41679;51.440;-2.012;2022-08-11T05:00:55;101290.53;;;14.87;100.00
55761;BME280;41679;51.440;-2.012;2022-08-11T05:12:34;101292.63;;;14.98;100.00
55761;BME280;41679;51.440;-2.012;2022-08-11T05:15:02;101290.28;;;15.08;100.00
55761;BME280;41679;51.440;-2.012;2022-08-11T05:18:01;101287.56;;;15.15;100.00
55761;BME280;41679;51.440;-2.012;2022-08-11T05:20:52;101284.16;;;15.26;100.00
55761;BME280;41679;51.440;-2.012;2022-08-11T05:23:40;101288.34;;;15.36;100.00
55761;BME280;41679;51.440;-2.012;2022-08-11T05:26:26;101296.31;;;15.44;100.00
55761;BME280;41679;51.440;-2.012;2022-08-11T05:29:35;101294.59;;;15.49;100.00
55761;BME280;41679;51.440;-2.012;2022-08-11T05:32:22;101297.28;;;15.56;100.00
55761;BME280;41679;51.440;-2.012;2022-08-11T05:35:07;101304.00;;;15.60;100.00
55761;BME280;41679;51.440;-2.012;2022-08-11T05:37:41;101310.16;;;15.42;100.00
55761;BME280;41679;51.440;-2.012;2022-08-11T05:40:25;101314.84;;;15.28;100.00
55761;BME280;41679;51.440;-2.012;2022-08-11T05:43:12;101319.03;;;15.24;100.00
55761;BME280;41679;51.440;-2.012;2022-08-11T05:46:01;101312.75;;;15.30;100.00
55761;BME280;41679;51.440;-2.012;2022-08-11T05:48:46;101320.22;;;15.48;100.00
55761;BME280;41679;51.440;-2.012;2022-08-11T05:51:39;101310.31;;;15.61;100.00
55761;BME280;41679;51.440;-2.012;2022-08-11T05:54:25;101315.31;;;15.77;100.00
55761;BME280;41679;51.440;-2.012;2022-08-11T05:57:18;101310.41;;;15.92;100.00
55761;BME280;41679;51.440;-2.012;2022-08-11T05:59:46;101320.25;;;16.00;100.00
55761;BME280;41679;51.440;-2.012;2022-08-11T06:02:12;101315.38;;;16.09;100.00
55761;BME280;41679;51.440;-2.012;2022-08-11T06:04:38;101307.13;;;16.15;100.00
55761;BME280;41679;51.440;-2.012;2022-08-11T06:07:07;101308.13;;;16.21;100.00
55761;BME280;41679;51.440;-2.012;2022-08-11T06:12:07;101321.47;;;16.43;100.00
55761;BME280;41679;51.440;-2.012;2022-08-11T06:14:34;101315.22;;;16.60;100.00
55761;BME280;41679;51.440;-2.012;2022-08-11T06:17:06;101324.03;;;17.13;100.00
55761;BME280;41679;51.440;-2.012;2022-08-11T06:19:36;101320.63;;;17.72;100.00
55761;BME280;41679;51.440;-2.012;2022-08-11T06:22:04;101322.13;;;18.35;100.00
55761;BME280;41679;51.440;-2.012;2022-08-11T06:24:31;101311.69;;;18.79;100.00
55761;BME280;41679;51.440;-2.012;2022-08-11T06:26:59;101333.72;;;19.15;100.00
55761;BME280;41679;51.440;-2.012;2022-08-11T06:29:25;101334.13;;;19.59;100.00
55761;BME280;41679;51.440;-2.012;2022-08-11T06:31:52;101332.06;;;19.89;100.00
55761;BME280;41679;51.440;-2.012;2022-08-11T06:36:59;101333.59;;;20.43;100.00
55761;BME280;41679;51.440;-2.012;2022-08-11T06:39:51;101326.81;;;20.62;100.00
55761;BME280;41679;51.440;-2.012;2022-08-11T06:47:35;101323.78;;;20.97;100.00
55761;BME280;41679;51.440;-2.012;2022-08-11T06:50:06;101329.97;;;20.88;100.00
55761;BME280;41679;51.440;-2.012;2022-08-11T06:52:51;101329.97;;;21.05;100.00
55761;BME280;41679;51.440;-2.012;2022-08-11T06:55:26;101338.31;;;21.10;100.00
55761;BME280;41679;51.440;-2.012;2022-08-11T06:58:16;101339.22;;;21.15;100.00
55761;BME280;41679;51.440;-2.012;2022-08-11T07:01:08;101333.94;;;21.31;100.00
55761;BME280;41679;51.440;-2.012;2022-08-11T07:03:44;101335.53;;;21.44;100.00
55761;BME280;41679;51.440;-2.012;2022-08-11T07:14:32;101346.25;;;22.06;100.00
55761;BME280;41679;51.440;-2.012;2022-08-11T07:17:20;101342.00;;;21.98;100.00
55761;BME280;41679;51.440;-2.012;2022-08-11T07:19:54;101346.78;;;22.08;100.00
55761;BME280;41679;51.440;-2.012;2022-08-11T07:22:41;101348.50;;;22.36;100.00
55761;BME280;41679;51.440;-2.012;2022-08-11T07:25:28;101350.75;;;22.39;100.00
55761;BME280;41679;51.440;-2.012;2022-08-11T07:28:20;101337.31;;;22.48;100.00
55761;BME280;41679;51.440;-2.012;2022-08-11T07:31:11;101343.50;;;22.33;100.00
55761;BME280;41679;51.440;-2.012;2022-08-11T07:33:45;101337.69;;;22.62;100.00
55761;BME280;41679;51.440;-2.012;2022-08-11T07:36:13;101339.09;;;22.64;100.00
55761;BME280;41679;51.440;-2.012;2022-08-11T07:38:44;101342.13;;;22.95;100.00
55761;BME280;41679;51.440;-2.012;2022-08-11T07:41:17;101338.06;;;22.76;100.00
55761;BME280;41679;51.440;-2.012;2022-08-11T07:43:47;101341.47;;;22.83;100.00
55761;BME280;41679;51.440;-2.012;2022-08-11T07:46:13;101351.69;;;22.82;100.00
55761;BME280;41679;51.440;-2.012;2022-08-11T07:48:58;101350.09;;;22.91;100.00
55761;BME280;41679;51.440;-2.012;2022-08-11T07:51:44;101340.44;;;22.94;100.00
55761;BME280;41679;51.440;-2.012;2022-08-11T07:54:29;101345.06;;;23.15;100.00
55761;BME280;41679;51.440;-2.012;2022-08-11T07:56:55;101342.41;;;23.36;100.00
55761;BME280;41679;51.440;-2.012;2022-08-11T07:59:22;101345.47;;;23.40;100.00
55761;BME280;41679;51.440;-2.012;2022-08-11T08:02:09;101341.66;;;23.51;100.00
55761;BME280;41679;51.440;-2.012;2022-08-11T08:04:54;101347.06;;;23.30;100.00
55761;BME280;41679;51.440;-2.012;2022-08-11T08:07:39;101343.34;;;23.52;100.00
55761;BME280;41679;51.440;-2.012;2022-08-11T08:10:23;101343.63;;;23.55;100.00
55761;BME280;41679;51.440;-2.012;2022-08-11T08:13:07;101337.00;;;23.67;100.00
55761;BME280;41679;51.440;-2.012;2022-08-11T08:15:52;101340.16;;;23.80;100.00
55761;BME280;41679;51.440;-2.012;2022-08-11T08:18:37;101338.53;;;23.90;100.00
55761;BME280;41679;51.440;-2.012;2022-08-11T08:21:04;101333.88;;;24.16;100.00
55761;BME280;41679;51.440;-2.012;2022-08-11T08:23:38;101333.91;;;24.21;100.00
55761;BME280;41679;51.440;-2.012;2022-08-11T08:26:06;101334.50;;;24.38;100.00
55761;BME280;41679;51.440;-2.012;2022-08-11T08:28:54;101326.88;;;23.88;100.00
55761;BME280;41679;51.440;-2.012;2022-08-11T08:31:41;101331.19;;;23.63;100.00
55761;BME280;41679;51.440;-2.012;2022-08-11T08:34:08;101328.59;;;23.94;100.00
55761;BME280;41679;51.440;-2.012;2022-08-11T08:36:34;101330.00;;;24.07;100.00
55761;BME280;41679;51.440;-2.012;2022-08-11T08:39:00;101328.31;;;24.00;100.00
55761;BME280;41679;51.440;-2.012;2022-08-11T08:41:31;101332.34;;;23.67;100.00
55761;BME280;41679;51.440;-2.012;2022-08-11T08:44:06;101330.50;;;23.35;100.00
55761;BME280;41679;51.440;-2.012;2022-08-11T08:46:36;101328.78;;;23.24;100.00
55761;BME280;41679;51.440;-2.012;2022-08-11T08:49:04;101326.31;;;23.33;100.00
55761;BME280;41679;51.440;-2.012;2022-08-11T08:51:34;101331.03;;;23.32;100.00
55761;BME280;41679;51.440;-2.012;2022-08-11T08:54:07;101327.72;;;23.35;100.00
55761;BME280;41679;51.440;-2.012;2022-08-11T08:56:34;101328.88;;;23.40;100.00
55761;BME280;41679;51.440;-2.012;2022-08-11T08:59:03;101328.03;;;23.39;100.00
55761;BME280;41679;51.440;-2.012;2022-08-11T09:01:37;101326.06;;;23.34;100.00
55761;BME280;41679;51.440;-2.012;2022-08-11T09:04:08;101326.72;;;23.52;100.00
55761;BME280;41679;51.440;-2.012;2022-08-11T09:06:39;101324.25;;;23.61;100.00
55761;BME280;41679;51.440;-2.012;2022-08-11T09:09:06;101323.78;;;23.74;100.00
55761;BME280;41679;51.440;-2.012;2022-08-11T09:11:37;101312.78;;;23.89;100.00
55761;BME280;41679;51.440;-2.012;2022-08-11T09:17:18;101321.94;;;24.05;100.00
55761;BME280;41679;51.440;-2.012;2022-08-11T09:19:45;101309.75;;;24.06;100.00
55761;BME280;41679;51.440;-2.012;2022-08-11T09:22:11;101303.69;;;24.14;100.00
55761;BME280;41679;51.440;-2.012;2022-08-11T09:24:56;101300.09;;;24.34;100.00
55761;BME280;41679;51.440;-2.012;2022-08-11T09:27:41;101307.09;;;24.52;100.00
55761;BME280;41679;51.440;-2.012;2022-08-11T09:30:10;101302.66;;;24.61;100.00
55761;BME280;41679;51.440;-2.012;2022-08-11T09:32:37;101299.03;;;24.71;100.00
55761;BME280;41679;51.440;-2.012;2022-08-11T09:35:04;101302.09;;;24.59;100.00
55761;BME280;41679;51.440;-2.012;2022-08-11T09:37:30;101299.59;;;24.73;100.00
55761;BME280;41679;51.440;-2.012;2022-08-11T09:40:15;101309.28;;;24.81;100.00
55761;BME280;41679;51.440;-2.012;2022-08-11T09:42:54;101295.41;;;24.96;100.00
55761;BME280;41679;51.440;-2.012;2022-08-11T09:45:38;101298.72;;;25.03;100.00
55761;BME280;41679;51.440;-2.012;2022-08-11T09:48:04;101296.47;;;25.10;100.00
55761;BME280;41679;51.440;-2.012;2022-08-11T09:50:33;101295.13;;;25.08;100.00
55761;BME280;41679;51.440;-2.012;2022-08-11T09:52:59;101296.75;;;25.24;100.00
55761;BME280;41679;51.440;-2.012;2022-08-11T09:55:32;101293.41;;;25.32;100.00
55761;BME280;41679;51.440;-2.012;2022-08-11T09:57:59;101297.00;;;25.38;100.00
55761;BME280;41679;51.440;-2.012;2022-08-11T10:00:46;101296.69;;;25.50;100.00
55761;BME280;41679;51.440;-2.012;2022-08-11T10:06:00;101297.41;;;25.76;100.00
55761;BME280;41679;51.440;-2.012;2022-08-11T10:08:50;101296.00;;;25.79;100.00
55761;BME280;41679;51.440;-2.012;2022-08-11T10:11:20;101286.53;;;25.80;100.00
55761;BME280;41679;51.440;-2.012;2022-08-11T10:13:48;101300.16;;;25.86;100.00
55761;BME280;41679;51.440;-2.012;2022-08-11T10:16:39;101290.09;;;25.95;100.00
55761;BME280;41679;51.440;-2.012;2022-08-11T10:19:06;101287.03;;;25.97;100.00
55761;BME280;41679;51.440;-2.012;2022-08-11T10:21:38;101292.50;;;26.12;100.00
55761;BME280;41679;51.440;-2.012;2022-08-11T10:24:06;101279.16;;;26.09;100.00
55761;BME280;41679;51.440;-2.012;2022-08-11T10:26:52;101274.91;;;26.22;100.00
55761;BME280;41679;51.440;-2.012;2022-08-11T10:29:27;101277.94;;;26.26;100.00
55761;BME280;41679;51.440;-2.012;2022-08-11T10:32:13;101277.41;;;26.24;100.00
55761;BME280;41679;51.440;-2.012;2022-08-11T10:35:02;101268.66;;;26.35;100.00
55761;BME280;41679;51.440;-2.012;2022-08-11T10:37:32;101264.81;;;26.31;100.00
55761;BME280;41679;51.440;-2.012;2022-08-11T10:40:03;101261.94;;;26.47;100.00
55761;BME280;41679;51.440;-2.012;2022-08-11T10:42:30;101265.97;;;26.65;100.00
55761;BME280;41679;51.440;-2.012;2022-08-11T10:45:15;101264.44;;;26.77;100.00
55761;BME280;41679;51.440;-2.012;2022-08-11T10:48:01;101263.78;;;26.91;100.00
55761;BME280;41679;51.440;-2.012;2022-08-11T10:50:28;101256.78;;;26.93;100.00
55761;BME280;41679;51.440;-2.012;2022-08-11T10:53:13;101263.72;;;26.96;100.00
55761;BME280;41679;51.440;-2.012;2022-08-11T10:55:58;101266.50;;;26.96;100.00
55761;BME280;41679;51.440;-2.012;2022-08-11T10:58:43;101267.22;;;27.06;100.00
55761;BME280;41679;51.440;-2.012;2022-08-11T11:01:13;101258.50;;;27.13;100.00
55761;BME280;41679;51.440;-2.012;2022-08-11T11:03:39;101253.38;;;27.25;100.00
55761;BME280;41679;51.440;-2.012;2022-08-11T11:08:42;101253.00;;;27.32;100.00
55761;BME280;41679;51.440;-2.012;2022-08-11T11:11:20;101253.47;;;27.39;100.00
55761;BME280;41679;51.440;-2.012;2022-08-11T11:13:49;101254.78;;;27.47;100.00
55761;BME280;41679;51.440;-2.012;2022-08-11T11:16:35;101237.31;;;27.41;100.00
55761;BME280;41679;51.440;-2.012;2022-08-11T11:19:41;101236.56;;;27.55;100.00
55761;BME280;41679;51.440;-2.012;2022-08-11T11:22:09;101231.38;;;27.67;100.00
55761;BME280;41679;51.440;-2.012;2022-08-11T11:25:09;101227.59;;;27.82;100.00
55761;BME280;41679;51.440;-2.012;2022-08-11T11:30:17;101231.34;;;27.91;100.00
55761;BME280;41679;51.440;-2.012;2022-08-11T11:33:07;101235.94;;;27.82;100.00
55761;BME280;41679;51.440;-2.012;2022-08-11T11:38:11;101222.06;;;27.96;100.00
55761;BME280;41679;51.440;-2.012;2022-08-11T11:40:38;101222.75;;;28.06;100.00
55761;BME280;41679;51.440;-2.012;2022-08-11T11:43:05;101214.22;;;28.17;100.00
55761;BME280;41679;51.440;-2.012;2022-08-11T11:45:31;101216.38;;;28.20;100.00
55761;BME280;41679;51.440;-2.012;2022-08-11T11:47:58;101216.22;;;28.30;100.00
55761;BME280;41679;51.440;-2.012;2022-08-11T11:50:32;101212.06;;;28.46;100.00
55761;BME280;41679;51.440;-2.012;2022-08-11T11:53:06;101203.28;;;28.53;100.00
55761;BME280;41679;51.440;-2.012;2022-08-11T11:55:34;101214.47;;;28.67;100.00
55761;BME280;41679;51.440;-2.012;2022-08-11T11:58:02;101213.03;;;28.69;100.00
55761;BME280;41679;51.440;-2.012;2022-08-11T12:00:47;101204.25;;;28.76;100.00
55761;BME280;41679;51.440;-2.012;2022-08-11T12:03:33;101205.09;;;28.76;100.00
55761;BME280;41679;51.440;-2.012;2022-08-11T12:06:02;101204.38;;;28.85;100.00
55761;BME280;41679;51.440;-2.012;2022-08-11T12:08:28;101199.94;;;28.84;100.00
55761;BME280;41679;51.440;-2.012;2022-08-11T12:10:57;101198.88;;;28.79;100.00
55761;BME280;41679;51.440;-2.012;2022-08-11T12:13:47;101195.47;;;28.83;100.00
55761;BME280;41679;51.440;-2.012;2022-08-11T12:16:34;101192.38;;;28.84;100.00
55761;BME280;41679;51.440;-2.012;2022-08-11T12:19:02;101195.88;;;28.90;100.00
55761;BME280;41679;51.440;-2.012;2022-08-11T12:21:29;101196.09;;;28.93;100.00
55761;BME280;41679;51.440;-2.012;2022-08-11T12:23:57;101182.66;;;28.82;100.00
55761;BME280;41679;51.440;-2.012;2022-08-11T12:27:02;101197.34;;;28.87;100.00
55761;BME280;41679;51.440;-2.012;2022-08-11T12:30:02;101183.28;;;28.92;100.00
55761;BME280;41679;51.440;-2.012;2022-08-11T12:32:31;101175.91;;;28.96;100.00
55761;BME280;41679;51.440;-2.012;2022-08-11T12:34:59;101166.75;;;29.10;100.00
55761;BME280;41679;51.440;-2.012;2022-08-11T12:37:35;101174.50;;;29.13;100.00
55761;BME280;41679;51.440;-2.012;2022-08-11T12:40:10;101169.44;;;29.15;99.04
55761;BME280;41679;51.440;-2.012;2022-08-11T12:42:58;101169.19;;;29.25;99.99
55761;BME280;41679;51.440;-2.012;2022-08-11T12:45:44;101176.03;;;29.33;98.63
55761;BME280;41679;51.440;-2.012;2022-08-11T12:48:14;101159.63;;;29.17;97.99
55761;BME280;41679;51.440;-2.012;2022-08-11T12:51:03;101166.94;;;29.27;97.64
55761;BME280;41679;51.440;-2.012;2022-08-11T12:54:11;101158.66;;;29.36;97.28
55761;BME280;41679;51.440;-2.012;2022-08-11T13:00:03;101157.56;;;29.59;93.62
55761;BME280;41679;51.440;-2.012;2022-08-11T13:02:47;101155.16;;;29.66;92.90
55761;BME280;41679;51.440;-2.012;2022-08-11T13:05:32;101153.22;;;29.67;86.36
55761;BME280;41679;51.440;-2.012;2022-08-11T13:08:02;101149.47;;;29.58;84.98
55761;BME280;41679;51.440;-2.012;2022-08-11T13:10:30;101142.72;;;29.59;87.45
55761;BME280;41679;51.440;-2.012;2022-08-11T13:13:17;101140.88;;;29.68;88.87
55761;BME280;41679;51.440;-2.012;2022-08-11T13:15:46;101130.78;;;29.81;88.08
55761;BME280;41679;51.440;-2.012;2022-08-11T13:18:15;101128.72;;;29.95;87.79
55761;BME280;41679;51.440;-2.012;2022-08-11T13:20:42;101135.31;;;29.91;87.92
55761;BME280;41679;51.440;-2.012;2022-08-11T13:23:09;101133.97;;;29.88;88.04
55761;BME280;41679;51.440;-2.012;2022-08-11T13:25:39;101127.22;;;29.89;87.29
55761;BME280;41679;51.440;-2.012;2022-08-11T13:28:05;101135.59;;;30.12;86.59
55761;BME280;41679;51.440;-2.012;2022-08-11T13:30:31;101125.03;;;30.08;86.58
55761;BME280;41679;51.440;-2.012;2022-08-11T13:33:16;101125.38;;;30.07;83.80
55761;BME280;41679;51.440;-2.012;2022-08-11T13:35:45;101122.97;;;29.92;81.08
55761;BME280;41679;51.440;-2.012;2022-08-11T13:38:11;101115.78;;;29.99;83.01
55761;BME280;41679;51.440;-2.012;2022-08-11T13:40:39;101123.44;;;30.16;81.17
55761;BME280;41679;51.440;-2.012;2022-08-11T13:43:05;101121.50;;;30.17;79.11
55761;BME280;41679;51.440;-2.012;2022-08-11T13:45:32;101117.94;;;30.02;80.30
55761;BME280;41679;51.440;-2.012;2022-08-11T13:47:59;101119.59;;;29.81;81.09
55761;BME280;41679;51.440;-2.012;2022-08-11T13:50:26;101122.78;;;29.88;79.28
55761;BME280;41679;51.440;-2.012;2022-08-11T13:53:11;101109.63;;;29.88;79.72
55761;BME280;41679;51.440;-2.012;2022-08-11T13:55:40;101109.63;;;29.88;79.64
55761;BME280;41679;51.440;-2.012;2022-08-11T13:58:09;101104.47;;;30.04;79.24
55761;BME280;41679;51.440;-2.012;2022-08-11T14:00:35;101107.50;;;30.17;78.60
55761;BME280;41679;51.440;-2.012;2022-08-11T14:09:15;101111.25;;;30.12;76.98
55761;BME280;41679;51.440;-2.012;2022-08-11T14:11:44;101104.56;;;30.22;77.54
55761;BME280;41679;51.440;-2.012;2022-08-11T14:14:30;101103.31;;;30.28;76.45
55761;BME280;41679;51.440;-2.012;2022-08-11T14:17:02;101101.25;;;30.20;77.22
55761;BME280;41679;51.440;-2.012;2022-08-11T14:19:29;101100.81;;;30.26;78.31
55761;BME280;41679;51.440;-2.012;2022-08-11T14:22:00;101108.13;;;30.36;76.99
55761;BME280;41679;51.440;-2.012;2022-08-11T14:24:40;101095.13;;;30.40;77.85
55761;BME280;41679;51.440;-2.012;2022-08-11T14:27:10;101095.00;;;30.45;76.23
55761;BME280;41679;51.440;-2.012;2022-08-11T14:29:38;101092.72;;;30.56;76.85
55761;BME280;41679;51.440;-2.012;2022-08-11T14:32:14;101086.84;;;30.66;72.47
55761;BME280;41679;51.440;-2.012;2022-08-11T14:34:42;101098.56;;;30.77;75.31
55761;BME280;41679;51.440;-2.012;2022-08-11T14:37:13;101090.88;;;30.91;75.76
55761;BME280;41679;51.440;-2.012;2022-08-11T14:39:42;101090.19;;;30.86;71.16
55761;BME280;41679;51.440;-2.012;2022-08-11T14:42:11;101080.59;;;30.78;74.29
55761;BME280;41679;51.440;-2.012;2022-08-11T14:45:14;101079.13;;;30.81;74.53
55761;BME280;41679;51.440;-2.012;2022-08-11T14:48:00;101065.81;;;30.86;75.77
55761;BME280;41679;51.440;-2.012;2022-08-11T14:50:31;101064.47;;;30.75;71.85
55761;BME280;41679;51.440;-2.012;2022-08-11T14:52:59;101065.13;;;30.81;71.24
55761;BME280;41679;51.440;-2.012;2022-08-11T14:55:28;101066.81;;;30.82;67.93
55761;BME280;41679;51.440;-2.012;2022-08-11T14:58:18;101063.63;;;30.74;68.91
55761;BME280;41679;51.440;-2.012;2022-08-11T15:00:45;101066.47;;;30.83;69.40
55761;BME280;41679;51.440;-2.012;2022-08-11T15:03:12;101055.47;;;30.95;69.96
55761;BME280;41679;51.440;-2.012;2022-08-11T15:05:48;101062.91;;;31.00;67.49
55761;BME280;41679;51.440;-2.012;2022-08-11T15:08:15;101056.44;;;30.91;68.05
55761;BME280;41679;51.440;-2.012;2022-08-11T15:10:42;101050.50;;;30.84;68.72
55761;BME280;41679;51.440;-2.012;2022-08-11T15:13:08;101045.41;;;30.94;67.74
55761;BME280;41679;51.440;-2.012;2022-08-11T15:15:35;101041.63;;;30.90;66.96
55761;BME280;41679;51.440;-2.012;2022-08-11T15:18:21;101045.53;;;30.81;67.78
55761;BME280;41679;51.440;-2.012;2022-08-11T15:20:49;101050.31;;;30.80;67.84
55761;BME280;41679;51.440;-2.012;2022-08-11T15:23:33;101041.06;;;30.71;69.53
55761;BME280;41679;51.440;-2.012;2022-08-11T15:29:05;101040.47;;;30.91;69.55
55761;BME280;41679;51.440;-2.012;2022-08-11T15:31:51;101034.72;;;31.05;67.62
55761;BME280;41679;51.440;-2.012;2022-08-11T15:34:34;101043.13;;;31.14;68.12
55761;BME280;41679;51.440;-2.012;2022-08-11T15:37:19;101028.28;;;31.05;65.76
55761;BME280;41679;51.440;-2.012;2022-08-11T15:39:59;101026.81;;;30.90;66.32
55761;BME280;41679;51.440;-2.012;2022-08-11T15:43:13;101025.16;;;31.06;64.74
55761;BME280;41679;51.440;-2.012;2022-08-11T15:46:02;101029.28;;;31.09;65.07
55761;BME280;41679;51.440;-2.012;2022-08-11T15:51:01;101030.25;;;31.04;63.20
55761;BME280;41679;51.440;-2.012;2022-08-11T15:53:33;101018.56;;;31.02;64.36
55761;BME280;41679;51.440;-2.012;2022-08-11T15:55:59;101016.09;;;31.18;63.76
55761;BME280;41679;51.440;-2.012;2022-08-11T15:58:31;101011.34;;;31.18;63.48
55761;BME280;41679;51.440;-2.012;2022-08-11T16:01:19;101012.97;;;31.20;66.05
55761;BME280;41679;51.440;-2.012;2022-08-11T16:04:10;100999.94;;;31.15;66.85
55761;BME280;41679;51.440;-2.012;2022-08-11T16:07:00;101001.94;;;31.06;65.21
55761;BME280;41679;51.440;-2.012;2022-08-11T16:09:38;100999.78;;;31.11;65.37
55761;BME280;41679;51.440;-2.012;2022-08-11T16:12:08;101007.53;;;31.14;66.64
55761;BME280;41679;51.440;-2.012;2022-08-11T16:14:43;101004.72;;;31.23;65.55
55761;BME280;41679;51.440;-2.012;2022-08-11T16:17:31;100999.47;;;31.13;66.52
55761;BME280;41679;51.440;-2.012;2022-08-11T16:19:58;101002.75;;;31.24;67.85
55761;BME280;41679;51.440;-2.012;2022-08-11T16:22:31;101008.50;;;31.27;65.81
55761;BME280;41679;51.440;-2.012;2022-08-11T16:25:19;100998.97;;;31.20;67.41
55761;BME280;41679;51.440;-2.012;2022-08-11T16:27:51;100992.03;;;31.17;67.38
55761;BME280;41679;51.440;-2.012;2022-08-11T16:30:17;100991.06;;;31.04;67.21
55761;BME280;41679;51.440;-2.012;2022-08-11T16:32:46;100998.31;;;31.05;70.39
55761;BME280;41679;51.440;-2.012;2022-08-11T16:35:19;100992.88;;;31.09;70.60
55761;BME280;41679;51.440;-2.012;2022-08-11T16:38:05;100991.22;;;31.16;69.80
55761;BME280;41679;51.440;-2.012;2022-08-11T16:40:51;100991.53;;;31.15;68.01
55761;BME280;41679;51.440;-2.012;2022-08-11T16:43:19;100985.94;;;31.06;67.80
55761;BME280;41679;51.440;-2.012;2022-08-11T16:46:06;100988.91;;;31.10;66.89
55761;BME280;41679;51.440;-2.012;2022-08-11T16:48:50;100986.44;;;31.08;67.27
55761;BME280;41679;51.440;-2.012;2022-08-11T16:51:18;100976.88;;;31.09;70.35
55761;BME280;41679;51.440;-2.012;2022-08-11T16:53:46;100976.72;;;31.06;70.71
55761;BME280;41679;51.440;-2.012;2022-08-11T16:56:16;100973.25;;;31.09;71.13